Flight Track Log - Related Links

Times and Time Zones

All times are in EDT time to prevent confusion due to time zone crossing. See the TAM3221 flight status page for this flight to view local times or setup timezone preferences in your user account.

Time Position Orientation Groundspeed Altitude Reporting Facility
EDT Latitude Longitude Course Direction KTS MPH feet Rate Location/Type
Sun 07:33:57 PM -19.6330 -43.9670 360° North  Level FlightAware ADS-B
Sun 07:38:42 PM -19.6550 -43.9500 142° Southeast 173 199 3,500 740 Climbing FlightAware ADS-B
Sun 07:38:57 PM -19.6670 -43.9470 167° South 190 219 3,700 933 Climbing FlightAware ADS-B
Sun 07:39:27 PM -19.6960 -43.9400 167° South 227 261 4,200 1,527 Climbing FlightAware ADS-B
Sun 07:39:52 PM -19.7210 -43.9290 158° South 237 273 5,100 2,250 Climbing FlightAware ADS-B
Sun 07:40:07 PM -19.7290 -43.9130 118° Southeast 241 277 5,700 2,400 Climbing FlightAware ADS-B
Sun 07:40:47 PM -19.7080 -43.8780 57° Northeast 240 276 7,300 2,400 Climbing FlightAware ADS-B
Sun 07:41:17 PM -19.6750 -43.8850 349° North 241 277 8,500 2,400 Climbing FlightAware ADS-B
Sun 07:41:32 PM -19.6600 -43.8940 331° Northwest 246 283 9,100 2,400 Climbing FlightAware ADS-B
Sun 07:41:42 PM -19.6530 -43.9030 310° West 249 287 9,500 2,400 Climbing FlightAware ADS-B
Sun 07:41:52 PM -19.6500 -43.9150 285° West 250 288 9,900 1,800 Climbing FlightAware ADS-B
Sun 07:42:12 PM -19.6540 -43.9390 260° West 268 308 10,400 1,200 Climbing FlightAware ADS-B
Sun 07:42:52 PM -19.6680 -43.9920 254° West 313 360 11,100 1,129 Climbing FlightAware ADS-B
Sun 07:43:37 PM -19.6880 -44.0660 254° West 359 413 12,000 1,694 Climbing FlightAware ADS-B
Sun 07:44:17 PM -19.7050 -44.1350 255° West 369 425 13,500 2,118 Climbing FlightAware ADS-B
Sun 07:45:02 PM -19.7260 -44.2160 255° West 376 433 15,000 1,886 Climbing FlightAware ADS-B
Sun 07:45:27 PM -19.7490 -44.2550 238° Southwest 389 448 15,700 1,714 Climbing FlightAware ADS-B
Sun 07:46:12 PM -19.8070 -44.3170 225° Southwest 398 458 17,000 1,624 Climbing FlightAware ADS-B
Sun 07:46:52 PM -19.8590 -44.3740 226° Southwest 408 470 18,000 1,650 Climbing FlightAware ADS-B
Sun 07:47:32 PM -19.9090 -44.4330 228° Southwest 409 471 19,200 1,553 Climbing FlightAware ADS-B
Sun 07:48:17 PM -19.9620 -44.5050 232° Southwest 418 481 20,200 1,412 Climbing FlightAware ADS-B
Sun 07:48:57 PM -20.0100 -44.5710 232° Southwest 420 483 21,200 1,624 Climbing FlightAware ADS-B
Sun 07:49:42 PM -20.0630 -44.6440 232° Southwest 417 480 22,500 1,482 Climbing FlightAware ADS-B
Sun 07:50:22 PM -20.1110 -44.7100 232° Southwest 420 483 23,300 1,059 Climbing FlightAware ADS-B
Sun 07:51:07 PM -20.1640 -44.7830 232° Southwest 428 493 24,000 1,129 Climbing FlightAware ADS-B
Sun 07:51:47 PM -20.2110 -44.8470 232° Southwest 428 493 24,900 1,275 Climbing FlightAware ADS-B
Sun 07:52:27 PM -20.2600 -44.9150 232° Southwest 430 495 25,700 988 Climbing FlightAware ADS-B
Sun 07:53:12 PM -20.3170 -44.9930 232° Southwest 438 504 26,300 847 Climbing FlightAware ADS-B
Sun 07:53:52 PM -20.3660 -45.0600 232° Southwest 442 509 26,900 1,125 Climbing FlightAware ADS-B
Sun 07:54:32 PM -20.4170 -45.1310 233° Southwest 440 506 27,800 1,200 Climbing FlightAware ADS-B
Sun 07:55:12 PM -20.4670 -45.2010 233° Southwest 441 507 28,500 918 Climbing FlightAware ADS-B
Sun 07:55:57 PM -20.5230 -45.2790 233° Southwest 445 512 29,100 706 Climbing FlightAware ADS-B
Sun 07:56:37 PM -20.5730 -45.3480 232° Southwest 452 520 29,500 918 Climbing FlightAware ADS-B
Sun 07:57:22 PM -20.6300 -45.4270 232° Southwest 448 516 30,400 1,341 Climbing FlightAware ADS-B
Sun 07:58:02 PM -20.6810 -45.4980 232° Southwest 436 502 31,400 1,482 Climbing FlightAware ADS-B
Sun 07:58:47 PM -20.7330 -45.5700 232° Southwest 426 490 32,500 1,412 Climbing FlightAware ADS-B
Sun 07:59:27 PM -20.7830 -45.6400 233° Southwest 416 479 33,400 1,050 Climbing FlightAware ADS-B
Sun 08:00:07 PM -20.8270 -45.7020 233° Southwest 416 479 33,900 494 Climbing FlightAware ADS-B
Sun 08:00:52 PM -20.8430 -45.7240 232° Southwest 416 479 34,100 918 Climbing FlightAware ADS-B
Sun 08:01:32 PM -20.9280 -45.8430 233° Southwest 411 473 35,200 1,129 Climbing FlightAware ADS-B
Sun 08:02:17 PM -20.9790 -45.9150 233° Southwest 411 473 35,700 565 Climbing FlightAware ADS-B
Sun 08:02:57 PM -21.0260 -45.9820 233° Southwest 411 473 36,000 212 Climbing FlightAware ADS-B
Sun 08:03:42 PM -21.0770 -46.0530 232° Southwest 406 467 36,000  Level FlightAware ADS-B
Sun 08:04:22 PM -21.1220 -46.1160 233° Southwest 402 463 36,000  Level FlightAware ADS-B
Sun 08:05:02 PM -21.1610 -46.1710 233° Southwest 402 463 36,000  Level FlightAware ADS-B
Sun 08:05:37 PM -21.1990 -46.2250 233° Southwest 402 463 36,000  Level FlightAware ADS-B
Sun 08:06:07 PM -21.2370 -46.2730 230° Southwest 401 461 36,000  Level FlightAware ADS-B
Sun 08:06:42 PM -21.2850 -46.3180 221° Southwest 400 460 36,000  Level FlightAware ADS-B
Sun 08:07:27 PM -21.3550 -46.3860 222° Southwest 394 453 36,000  Level FlightAware ADS-B
Sun 08:08:12 PM -21.4150 -46.4440 222° Southwest 396 456 36,000  Level FlightAware ADS-B
Sun 08:08:52 PM -21.4720 -46.5000 222° Southwest 397 457 36,000  Level FlightAware ADS-B
Sun 08:09:37 PM -21.5340 -46.5590 222° Southwest 397 457 36,000  Level FlightAware ADS-B
Sun 08:10:17 PM -21.5910 -46.6140 222° Southwest 397 457 36,000  Level FlightAware ADS-B
Sun 08:11:02 PM -21.6520 -46.6740 222° Southwest 396 456 36,000  Level FlightAware ADS-B
Sun 08:11:42 PM -21.7080 -46.7290 222° Southwest 396 456 36,000  Level FlightAware ADS-B
Sun 08:12:22 PM -21.7640 -46.7830 222° Southwest 396 456 36,000  Level FlightAware ADS-B
Sun 08:13:07 PM -21.8250 -46.8430 222° Southwest 398 458 36,000  Level FlightAware ADS-B
Sun 08:13:47 PM -21.8800 -46.8970 222° Southwest 399 459 36,000  Level FlightAware ADS-B
Sun 08:14:32 PM -21.9430 -46.9580 222° Southwest 398 458 36,000  Level FlightAware ADS-B
Sun 08:15:12 PM -21.9990 -47.0140 223° Southwest 396 456 36,000  Level FlightAware ADS-B
Sun 08:15:52 PM -22.0550 -47.0680 222° Southwest 395 455 36,000  Level FlightAware ADS-B
Sun 08:16:32 PM -22.1090 -47.1210 222° Southwest 395 455 36,000  Level FlightAware ADS-B
Sun 08:17:17 PM -22.1720 -47.1830 222° Southwest 396 456 36,000  Level FlightAware ADS-B
Sun 08:18:02 PM -22.2320 -47.2430 223° Southwest 398 458 36,000  Level FlightAware ADS-B
Sun 08:18:47 PM -22.2950 -47.3040 222° Southwest 397 457 36,000 -847 Level FlightAware ADS-B
Sun 08:19:27 PM -22.3500 -47.3590 223° Southwest 414 476 34,800 -2,850 Descending FlightAware ADS-B
Sun 08:20:07 PM -22.4080 -47.4160 222° Southwest 423 487 32,200 -3,600 Descending FlightAware ADS-B
Sun 08:20:52 PM -22.4770 -47.4840 222° Southwest 439 505 29,700 -3,953 Descending FlightAware ADS-B
Sun 08:21:32 PM -22.5380 -47.5440 222° Southwest 460 529 26,600 -4,024 Descending FlightAware ADS-B
Sun 08:22:17 PM -22.6180 -47.6050 215° Southwest 462 532 24,000 -3,035 Descending FlightAware ADS-B
Sun 08:22:57 PM -22.7010 -47.6170 188° South 450 518 22,300 -2,400 Descending FlightAware ADS-B
Sun 08:23:37 PM -22.7800 -47.6370 193° South 421 484 20,800 -1,950 Descending FlightAware ADS-B
Sun 08:24:17 PM -22.8510 -47.6580 195° South 408 470 19,700 -1,900 Descending FlightAware ADS-B
Sun 08:24:37 PM -22.8820 -47.6560 177° South 414 476 18,900 -2,267 Descending FlightAware ADS-B
Sun 08:25:02 PM -22.9230 -47.6380 158° South 412 474 18,000 -2,073 Descending FlightAware ADS-B
Sun 08:25:32 PM -22.9630 -47.5960 136° Southeast 409 471 17,000 -1,714 Descending FlightAware ADS-B
Sun 08:26:12 PM -23.0010 -47.5230 119° Southeast 388 447 16,000 -1,425 Descending FlightAware ADS-B
Sun 08:26:52 PM -23.0340 -47.4580 119° Southeast 368 423 15,100 -1,520 Descending FlightAware ADS-B
Sun 08:27:27 PM -23.0610 -47.4050 119° Southeast 360 414 14,100 -1,575 Descending FlightAware ADS-B
Sun 08:28:12 PM -23.0990 -47.3320 120° Southeast 350 403 13,000 -1,341 Descending FlightAware ADS-B
Sun 08:28:52 PM -23.1270 -47.2760 119° Southeast 329 379 12,200 -1,040 Descending FlightAware ADS-B
Sun 08:29:27 PM -23.1560 -47.2330 126° Southeast 310 357 11,700 -975 Descending FlightAware ADS-B
Sun 08:30:12 PM -23.2060 -47.1870 140° Southeast 295 339 10,900 -1,050 Descending FlightAware ADS-B
Sun 08:30:47 PM -23.2370 -47.1510 133° Southeast 292 336 10,300 -800 Descending FlightAware ADS-B
Sun 08:31:42 PM -23.2790 -47.0830 124° Southeast 291 335 9,700 -918 Descending FlightAware ADS-B
Sun 08:32:12 PM -23.3010 -47.0470 124° Southeast 291 335 9,000 -1,300 Descending FlightAware ADS-B
Sun 08:32:42 PM -23.3240 -47.0100 124° Southeast 286 329 8,400 -1,200 Descending FlightAware ADS-B
Sun 08:33:12 PM -23.3450 -46.9760 124° Southeast 279 321 7,800 -1,309 Descending FlightAware ADS-B
Sun 08:33:37 PM -23.3640 -46.9460 125° Southeast 273 314 7,200 -1,309 Descending FlightAware ADS-B
Sun 08:34:07 PM -23.3840 -46.9140 124° Southeast 271 312 6,600 -1,091 Descending FlightAware ADS-B
Sun 08:34:32 PM -23.4010 -46.8840 122° Southeast 260 299 6,200 -1,200 Descending FlightAware ADS-B
Sun 08:34:57 PM -23.4180 -46.8570 124° Southeast 256 295 5,600 -1,371 Descending FlightAware ADS-B
Sun 08:35:07 PM -23.4240 -46.8480 126° Southeast 256 295 5,400 -400 Descending FlightAware ADS-B
Sun 08:35:42 PM -23.4480 -46.8090 124° Southeast 236 272 5,300 -369 Descending FlightAware ADS-B
Sun 08:36:12 PM -23.4650 -46.7800 123° Southeast 230 265 5,000 -300 Descending FlightAware ADS-B
Sun 08:36:42 PM -23.4840 -46.7560 131° Southeast 210 242 5,000  Level FlightAware ADS-B
Sun 08:37:02 PM -23.4960 -46.7470 145° Southeast 189 217 5,000 -480 Level FlightAware ADS-B
Sun 08:37:32 PM -23.5190 -46.7310 147° Southeast 172 198 4,600 -800 Descending FlightAware ADS-B
Sun 08:38:02 PM -23.5380 -46.7180 148° Southeast 164 189 4,200 -800 Descending FlightAware ADS-B
Sun 08:38:17 PM -23.5480 -46.7110 147° Southeast 154 177 4,000 -750 Descending FlightAware ADS-B
Sun 08:38:42 PM -23.5620 -46.7010 147° Southeast 146 168 3,700 -750 Descending FlightAware ADS-B
Sun 08:38:57 PM -23.5710 -46.6950 149° Southeast 142 163 3,500 -720 Descending FlightAware ADS-B
Sun 08:39:32 PM -23.5890 -46.6820 147° Southeast 138 159 3,100 -700 Descending FlightAware ADS-B
Sun 08:39:57 PM -23.6020 -46.6740 151° Southeast 139 160 2,800 -764 Descending FlightAware ADS-B
Sun 08:40:27 PM -23.6210 -46.6600 146° Southeast 142 163 2,400 -429 Descending FlightAware ADS-B
Sun 08:41:07 PM -23.6180 -46.6450 78° East 137 158 2,300 -150 Descending FlightAware ADS-B

Login

Don't have an account? Register now (free) for customized features, flight alerts, and more!